»·PEaware :: SKY103 KHII-KPSP

SKY103 :: KHII-KPSP

FLIGHT INFORMATION

Flight Status: Arrived
Operator:
Sky High Charters
More flights by this operator :: More flights under this callsign
Pilot: Andrew C. (28419)
Aircraft: SOCATA TBM-900
(TBM9)
More flights by this aircraft type
Origin: KHII Lake Havasu City
United States
Destination: KPSP Palm Springs Intl
United States
More flights between these airports :: More routes between these airports
Route: +EED CLOWD1
File this flight plan on PilotEdge
Remarks:
Altitude:
(Current/Filed)
14,000ft
Speed:
(Current/Filed)
250kts
Departed: 01-Nov-20 03:37 PM
Arrived: 01-Nov-20 04:17 PM
Distance/Time
Traveled:
116nm/0:40
Distance/Time
To Go:
Arrived

Flight Plot

Page will automatically refresh every two minutes.

Flight plan parsing failed; only flown route is shown


Map Options




Map Legend


Flown Route
Filed Route
Departure Airport
Arrival Airport
Navaid (VOR, NDB)
Fix

Horizontal Profiles

Position Reports

Time Latitude Longitude Heading Altitude Ground
Speed
01-Nov-20 15:24 34.567346 -114.358798 305 732ft 0kts
01-Nov-20 15:25 34.567346 -114.358798 305 732ft 0kts
01-Nov-20 15:26 34.567346 -114.358798 305 732ft 0kts
01-Nov-20 15:27 34.567346 -114.358798 305 732ft 0kts
01-Nov-20 15:28 34.567346 -114.358798 305 732ft 0kts
01-Nov-20 15:29 34.567346 -114.358798 305 732ft 0kts
01-Nov-20 15:30 34.567346 -114.358798 305 732ft 0kts
01-Nov-20 15:31 34.567439 -114.358808 46 732ft 7kts
01-Nov-20 15:32 34.565769 -114.355826 151 755ft 18kts
01-Nov-20 15:33 34.562508 -114.353496 150 765ft 14kts
01-Nov-20 15:34 34.561356 -114.352419 63 777ft 0kts
01-Nov-20 15:35 34.561620 -114.351856 50 784ft 11kts
01-Nov-20 15:36 34.578668 -114.371879 303 2017ft 128kts
01-Nov-20 15:37 34.598764 -114.409709 309 4471ft 141kts
01-Nov-20 15:38 34.627399 -114.443862 350 6722ft 149kts
01-Nov-20 15:40 34.669516 -114.453818 354 9242ft 159kts
01-Nov-20 15:41 34.714049 -114.463136 352 11753ft 168kts
01-Nov-20 15:42 34.759960 -114.477343 310 13955ft 181kts
01-Nov-20 15:43 34.735066 -114.528815 217 14019ft 237kts
01-Nov-20 15:44 34.686056 -114.592685 225 13999ft 267kts
01-Nov-20 15:45 34.638011 -114.663114 227 13988ft 270kts
01-Nov-20 15:46 34.589983 -114.735388 227 13996ft 271kts
01-Nov-20 15:47 34.541919 -114.807787 227 13992ft 272kts
01-Nov-20 15:48 34.494073 -114.879302 227 13995ft 272kts
01-Nov-20 15:49 34.445827 -114.951406 227 13990ft 273kts
01-Nov-20 15:50 34.397662 -115.023394 227 14009ft 273kts
01-Nov-20 15:51 34.349690 -115.095128 227 14031ft 274kts
01-Nov-20 15:52 34.302547 -115.165710 227 14057ft 261kts
01-Nov-20 15:53 34.257285 -115.233516 227 14073ft 257kts
01-Nov-20 15:54 34.215656 -115.304004 233 14066ft 257kts
01-Nov-20 15:55 34.174926 -115.376057 228 14051ft 257kts
01-Nov-20 15:56 34.127592 -115.442854 225 14038ft 259kts
01-Nov-20 15:57 34.080801 -115.511144 226 14024ft 259kts
01-Nov-20 15:57 34.042080 -115.567057 226 14022ft 259kts
01-Nov-20 15:59 33.987115 -115.645498 226 14017ft 259kts
01-Nov-20 16:00 33.940043 -115.712726 225 13686ft 262kts
01-Nov-20 16:00 33.914848 -115.776006 267 12444ft 261kts
01-Nov-20 16:01 33.911039 -115.861254 263 10991ft 248kts
01-Nov-20 16:02 33.897782 -115.937560 213 9999ft 210kts
01-Nov-20 16:03 33.853151 -115.976513 210 10004ft 192kts
01-Nov-20 16:04 33.808854 -116.012668 209 10002ft 186kts
01-Nov-20 16:05 33.766637 -116.046864 209 10001ft 179kts
01-Nov-20 16:06 33.722389 -116.083036 211 8455ft 193kts
01-Nov-20 16:07 33.678348 -116.119145 211 6547ft 187kts
01-Nov-20 16:08 33.636490 -116.153561 219 5516ft 180kts
01-Nov-20 16:09 33.639419 -116.209155 285 5515ft 182kts
01-Nov-20 16:10 33.653920 -116.272321 285 5505ft 202kts
01-Nov-20 16:11 33.669477 -116.340173 285 4349ft 214kts
01-Nov-20 16:12 33.704430 -116.392136 323 3456ft 198kts
01-Nov-20 16:13 33.746642 -116.431119 324 2449ft 174kts
01-Nov-20 16:14 33.786140 -116.467523 323 1338ft 161kts
01-Nov-20 16:15 33.816129 -116.495661 326 572ft 84kts
01-Nov-20 16:16 33.828933 -116.507349 273 429ft 12kts
01-Nov-20 16:17 33.828652 -116.510700 276 429ft 9kts
01-Nov-20 16:18 33.828849 -116.511019 171 429ft 0kts
01-Nov-20 16:19 33.828849 -116.511019 170 429ft 0kts
01-Nov-20 16:20 33.828849 -116.511019 170 429ft 0kts

Navigation Log

Ident Type
Flight plan parsing failed, navigation log unavailable